createdAt,value
2022-12-28T00:02:22.110Z,5.87
2022-12-28T00:04:51.415Z,5.83
2022-12-28T00:07:18.407Z,5.77
2022-12-28T00:09:45.114Z,5.72
2022-12-28T00:12:11.763Z,5.70
2022-12-28T00:14:41.033Z,5.65
2022-12-28T00:17:07.749Z,5.61
2022-12-28T00:19:34.363Z,5.54
2022-12-28T00:22:03.290Z,5.49
2022-12-28T00:24:30.283Z,5.41
2022-12-28T00:26:59.243Z,5.40
2022-12-28T00:29:31.101Z,5.34
2022-12-28T00:31:59.051Z,5.13
2022-12-28T00:34:28.085Z,5.05
2022-12-28T00:37:10.057Z,4.93
2022-12-28T00:39:39.931Z,4.82
2022-12-28T00:42:06.750Z,4.78
2022-12-28T00:44:33.567Z,4.78
2022-12-28T00:47:02.718Z,4.76
2022-12-28T00:49:29.388Z,4.71
2022-12-28T00:51:56.118Z,4.67
2022-12-28T00:54:22.697Z,4.60
2022-12-28T00:56:49.427Z,4.55
2022-12-28T00:59:16.300Z,4.55
2022-12-28T01:01:45.912Z,4.51
2022-12-28T01:04:16.347Z,4.51
2022-12-28T01:06:45.481Z,4.44
2022-12-28T01:09:12.135Z,4.41
2022-12-28T01:11:38.789Z,4.39
2022-12-28T01:14:05.475Z,4.38
2022-12-28T01:16:38.021Z,4.36
2022-12-28T01:19:06.106Z,4.35
2022-12-28T01:21:36.543Z,4.33
2022-12-28T01:24:04.276Z,4.33
2022-12-28T01:26:34.454Z,4.28
2022-12-28T01:29:01.174Z,4.25
2022-12-28T01:31:31.469Z,4.03
2022-12-28T01:33:58.219Z,3.84
2022-12-28T01:36:26.410Z,3.85
2022-12-28T01:38:56.492Z,3.92
2022-12-28T01:41:24.206Z,3.98
2022-12-28T01:43:53.857Z,4.09
2022-12-28T01:46:24.810Z,4.13
2022-12-28T01:49:12.064Z,4.12
2022-12-28T01:51:47.667Z,4.14
2022-12-28T01:54:14.426Z,4.15
2022-12-28T01:56:43.349Z,4.14
2022-12-28T01:59:10.393Z,4.11
2022-12-28T02:01:39.921Z,4.11
2022-12-28T02:04:06.702Z,4.02
2022-12-28T02:06:35.618Z,3.96
2022-12-28T02:09:04.184Z,3.98
2022-12-28T02:11:30.741Z,3.96
2022-12-28T02:14:00.421Z,3.89
2022-12-28T02:16:27.454Z,3.80
2022-12-28T02:18:56.493Z,3.69
2022-12-28T02:21:30.449Z,3.67
2022-12-28T02:23:57.081Z,3.67
2022-12-28T02:26:26.830Z,3.66
2022-12-28T02:28:59.490Z,3.53
2022-12-28T02:31:44.935Z,3.56
2022-12-28T02:34:14.586Z,3.58
2022-12-28T02:36:45.118Z,3.62
2022-12-28T02:39:13.650Z,3.65
2022-12-28T02:41:41.394Z,3.68
2022-12-28T02:44:10.516Z,3.70
2022-12-28T02:46:55.731Z,3.70
2022-12-28T02:49:44.440Z,3.72
2022-12-28T02:52:20.723Z,3.74
2022-12-28T02:55:09.197Z,3.74
2022-12-28T02:57:54.403Z,3.71
2022-12-28T03:00:29.640Z,3.73
2022-12-28T03:02:59.584Z,3.79
2022-12-28T03:05:46.205Z,3.87
2022-12-28T03:08:21.827Z,3.96
2022-12-28T03:11:05.109Z,4.05
2022-12-28T03:13:43.872Z,4.09
2022-12-28T03:16:33.531Z,4.11
2022-12-28T03:19:23.977Z,4.12
2022-12-28T03:22:09.526Z,4.13
2022-12-28T03:24:55.155Z,4.12
2022-12-28T03:27:44.830Z,4.10
2022-12-28T03:30:32.949Z,4.03
2022-12-28T03:32:59.716Z,3.95
2022-12-28T03:35:46.623Z,3.92
2022-12-28T03:38:27.507Z,3.89
2022-12-28T03:40:56.245Z,3.88
2022-12-28T03:43:45.457Z,3.86
2022-12-28T03:46:31.765Z,3.83
2022-12-28T03:48:58.910Z,3.81
2022-12-28T03:51:25.601Z,3.84
2022-12-28T03:53:54.793Z,3.85
2022-12-28T03:56:24.246Z,3.86
2022-12-28T03:58:53.373Z,3.85
2022-12-28T04:01:21.222Z,3.78
2022-12-28T04:03:48.416Z,3.78
2022-12-28T04:06:16.667Z,3.75
2022-12-28T04:08:44.371Z,3.74
2022-12-28T04:11:11.241Z,3.72
2022-12-28T04:13:38.092Z,3.70
2022-12-28T04:16:12.373Z,3.69
2022-12-28T04:18:42.102Z,3.66
2022-12-28T04:21:12.301Z,3.59
2022-12-28T04:23:44.494Z,3.56
2022-12-28T04:26:19.106Z,3.53
2022-12-28T04:28:48.514Z,3.50
2022-12-28T04:31:33.825Z,3.52
2022-12-28T04:34:10.349Z,3.54
2022-12-28T04:36:47.386Z,3.54
2022-12-28T04:39:17.708Z,3.51
2022-12-28T04:41:46.776Z,3.49
2022-12-28T04:44:13.448Z,3.50
2022-12-28T04:46:40.369Z,3.50
2022-12-28T04:49:09.556Z,3.48
2022-12-28T04:51:36.266Z,3.36
2022-12-28T04:54:03.263Z,3.30
2022-12-28T04:56:32.698Z,3.15
2022-12-28T04:59:03.833Z,3.04
2022-12-28T05:01:30.663Z,3.00
2022-12-28T05:04:00.605Z,2.99
2022-12-28T05:06:27.844Z,2.99
2022-12-28T05:08:55.028Z,2.94
2022-12-28T05:11:22.581Z,2.84
2022-12-28T05:13:51.628Z,2.77
2022-12-28T05:16:22.099Z,2.67
2022-12-28T05:18:48.758Z,2.57
2022-12-28T05:21:17.119Z,2.49
2022-12-28T05:23:44.020Z,2.54
2022-12-28T05:26:14.539Z,2.55
2022-12-28T05:28:44.309Z,2.62
2022-12-28T05:31:11.956Z,2.56
2022-12-28T05:33:41.108Z,2.48
2022-12-28T05:36:12.427Z,2.50
2022-12-28T05:38:41.618Z,2.54
2022-12-28T05:41:09.003Z,2.59
2022-12-28T05:43:35.897Z,2.71
2022-12-28T05:46:05.427Z,2.83
2022-12-28T05:48:35.887Z,2.90
2022-12-28T05:51:03.305Z,2.90
2022-12-28T05:53:32.795Z,2.97
2022-12-28T05:56:14.239Z,3.03
2022-12-28T05:58:41.247Z,3.15
2022-12-28T06:01:09.898Z,3.24
2022-12-28T06:03:39.504Z,3.26
2022-12-28T06:06:12.067Z,3.27
2022-12-28T06:08:39.124Z,3.13
2022-12-28T06:11:07.219Z,3.08
2022-12-28T06:13:36.078Z,3.04
2022-12-28T06:16:06.408Z,3.05
2022-12-28T06:18:33.306Z,3.07
2022-12-28T06:21:10.046Z,3.06
2022-12-28T06:23:36.676Z,2.88
2022-12-28T06:26:06.537Z,2.94
2022-12-28T06:28:33.553Z,2.94
2022-12-28T06:31:06.679Z,2.91
2022-12-28T06:33:35.391Z,2.86
2022-12-28T06:36:02.194Z,2.77
2022-12-28T06:38:33.035Z,2.74
2022-12-28T06:41:14.571Z,2.74
2022-12-28T06:43:41.876Z,2.68
2022-12-28T06:46:09.206Z,2.69
2022-12-28T06:48:38.836Z,2.68
2022-12-28T06:51:10.825Z,2.69
2022-12-28T06:53:37.786Z,2.70
2022-12-28T06:56:07.480Z,2.72
2022-12-28T06:58:38.874Z,2.75
2022-12-28T07:01:06.860Z,2.70
2022-12-28T07:03:33.504Z,2.63
2022-12-28T07:06:03.105Z,2.67
2022-12-28T07:08:29.859Z,2.72
2022-12-28T07:10:56.487Z,2.79
2022-12-28T07:13:28.325Z,2.90
2022-12-28T07:15:59.841Z,2.98
2022-12-28T07:18:28.789Z,3.06
2022-12-28T07:21:02.832Z,3.11
2022-12-28T07:23:31.411Z,3.18
2022-12-28T07:25:58.716Z,3.22
2022-12-28T07:28:25.344Z,3.27
2022-12-28T07:30:54.922Z,3.34
2022-12-28T07:33:24.656Z,3.40
2022-12-28T07:35:51.315Z,3.42
2022-12-28T07:38:21.543Z,3.47
2022-12-28T07:40:50.754Z,3.52
2022-12-28T07:43:17.383Z,3.60
2022-12-28T07:45:44.326Z,3.62
2022-12-28T07:48:11.935Z,3.51
2022-12-28T07:50:38.593Z,3.42
2022-12-28T07:53:05.295Z,3.49
2022-12-28T07:56:03.873Z,3.47
2022-12-28T07:58:32.979Z,3.56
2022-12-28T08:01:04.317Z,3.56
2022-12-28T08:03:31.024Z,3.56
2022-12-28T08:06:02.512Z,3.57
2022-12-28T08:08:34.148Z,3.73
2022-12-28T08:11:07.062Z,3.91
2022-12-28T08:13:34.359Z,4.07
2022-12-28T08:16:03.692Z,4.05
2022-12-28T08:18:30.840Z,3.98
2022-12-28T08:21:21.119Z,4.09
2022-12-28T08:23:47.815Z,4.25
2022-12-28T08:26:17.923Z,4.40
2022-12-28T08:28:45.478Z,4.54
2022-12-28T08:31:13.443Z,4.67
2022-12-28T08:33:45.683Z,4.78
2022-12-28T08:36:12.473Z,4.91
2022-12-28T08:38:41.937Z,4.97
2022-12-28T08:41:12.035Z,5.09
2022-12-28T08:43:38.614Z,5.21
2022-12-28T08:46:09.314Z,5.22
2022-12-28T08:48:36.233Z,5.27
2022-12-28T08:51:03.840Z,5.39
2022-12-28T08:53:30.750Z,5.53
2022-12-28T08:56:06.350Z,5.59
2022-12-28T08:58:33.876Z,5.65
2022-12-28T09:01:07.791Z,5.82
2022-12-28T09:03:38.246Z,6.01
2022-12-28T09:06:08.402Z,6.21
2022-12-28T09:08:35.165Z,6.40
2022-12-28T09:11:02.569Z,6.59
2022-12-28T09:13:29.539Z,6.85
2022-12-28T09:15:59.942Z,7.12
2022-12-28T09:18:26.873Z,7.20
2022-12-28T09:20:53.589Z,7.45
2022-12-28T09:23:20.294Z,7.58
2022-12-28T09:25:49.472Z,7.70
2022-12-28T09:28:18.407Z,7.81
2022-12-28T09:30:45.169Z,7.71
2022-12-28T09:33:30.608Z,7.48
2022-12-28T09:35:58.690Z,7.35
2022-12-28T09:38:25.631Z,7.32
2022-12-28T09:40:52.214Z,7.30
2022-12-28T09:43:18.915Z,7.28
2022-12-28T09:45:47.977Z,7.24
2022-12-28T09:48:14.982Z,7.25
2022-12-28T09:50:41.990Z,7.25
2022-12-28T09:53:08.697Z,7.40
2022-12-28T09:55:38.813Z,7.53
2022-12-28T09:58:13.294Z,7.72
2022-12-28T10:00:47.419Z,7.95
2022-12-28T10:03:24.248Z,8.13
2022-12-28T10:05:51.136Z,8.35
2022-12-28T10:08:20.872Z,8.42
2022-12-28T10:10:49.173Z,8.49
2022-12-28T10:13:45.890Z,8.46
2022-12-28T10:16:06.658Z,8.51
2022-12-28T10:18:39.675Z,8.47
2022-12-28T10:21:06.560Z,8.84
2022-12-28T10:23:41.251Z,9.06
2022-12-28T10:26:17.555Z,9.22
2022-12-28T10:28:48.762Z,9.56
2022-12-28T10:31:17.188Z,9.70
2022-12-28T10:33:49.659Z,9.41
2022-12-28T10:36:19.107Z,9.04
2022-12-28T10:38:49.952Z,8.65
2022-12-28T10:41:17.203Z,8.27
2022-12-28T10:44:03.437Z,8.20
2022-12-28T10:46:37.032Z,8.10
2022-12-28T10:49:15.510Z,7.84
2022-12-28T10:52:01.002Z,7.68
2022-12-28T10:54:30.726Z,7.69
2022-12-28T10:56:57.431Z,7.82
2022-12-28T10:59:25.664Z,7.75
2022-12-28T11:01:52.460Z,7.60
2022-12-28T11:04:20.217Z,7.49
2022-12-28T11:06:57.114Z,7.62
2022-12-28T11:09:25.181Z,7.91
2022-12-28T11:12:15.544Z,7.96
2022-12-28T11:14:42.243Z,8.07
2022-12-28T11:17:17.956Z,8.14
2022-12-28T11:19:49.940Z,8.06
2022-12-28T11:22:18.072Z,6.75
2022-12-28T11:24:47.733Z,8.31
2022-12-28T11:27:17.750Z,8.13
2022-12-28T11:29:51.619Z,8.32
2022-12-28T11:32:20.384Z,8.47
2022-12-28T11:34:47.179Z,8.50
2022-12-28T11:37:14.554Z,8.54
2022-12-28T11:39:59.221Z,8.67
2022-12-28T11:42:40.677Z,9.01
2022-12-28T11:45:10.996Z,9.73
2022-12-28T11:47:37.799Z,10.34
2022-12-28T11:50:25.449Z,10.62
2022-12-28T11:52:54.327Z,10.92
2022-12-28T11:55:26.973Z,11.13
2022-12-28T11:57:54.379Z,11.31
2022-12-28T12:00:24.002Z,11.37
2022-12-28T12:02:57.766Z,11.29
2022-12-28T12:05:41.552Z,11.42
2022-12-28T12:08:14.379Z,11.42
2022-12-28T12:10:47.182Z,11.61
2022-12-28T12:13:26.144Z,11.22
2022-12-28T12:16:07.046Z,10.44
2022-12-28T12:18:40.273Z,10.19
2022-12-28T12:21:15.083Z,10.29
2022-12-28T12:23:50.352Z,10.10
2022-12-28T12:26:38.423Z,9.69
2022-12-28T12:29:06.765Z,9.65
2022-12-28T12:31:43.721Z,9.36
2022-12-28T12:34:24.257Z,9.26
2022-12-28T12:37:19.578Z,9.21
2022-12-28T12:39:51.584Z,9.13
2022-12-28T12:42:21.266Z,8.98
2022-12-28T12:44:50.428Z,8.66
2022-12-28T12:47:23.210Z,8.55
2022-12-28T12:49:54.960Z,8.46
2022-12-28T12:52:33.860Z,8.35
2022-12-28T12:55:12.034Z,8.42
2022-12-28T12:57:58.010Z,8.49
2022-12-28T13:00:27.749Z,8.35
2022-12-28T13:03:13.188Z,8.49
2022-12-28T13:05:43.080Z,8.51
2022-12-28T13:08:43.999Z,8.56
2022-12-28T13:11:13.241Z,8.60
2022-12-28T13:13:43.824Z,8.61
2022-12-28T13:16:11.327Z,8.62
2022-12-28T13:18:45.993Z,8.92
2022-12-28T13:21:16.869Z,9.33
2022-12-28T13:23:46.097Z,9.76
2022-12-28T13:26:13.266Z,10.33
2022-12-28T13:28:46.771Z,10.88
2022-12-28T13:31:23.272Z,11.27
2022-12-28T13:34:00.290Z,11.58
2022-12-28T13:36:27.169Z,11.41
2022-12-28T13:39:05.286Z,10.98
2022-12-28T13:41:35.881Z,11.17
2022-12-28T13:44:13.278Z,11.35
2022-12-28T13:46:40.267Z,11.14
2022-12-28T13:49:06.902Z,11.15
2022-12-28T13:51:35.307Z,10.76
2022-12-28T13:54:02.245Z,10.35
2022-12-28T13:56:31.381Z,10.42
2022-12-28T13:58:59.439Z,10.40
2022-12-28T14:01:29.492Z,10.27
2022-12-28T14:04:08.914Z,9.99
2022-12-28T14:06:46.169Z,9.81
2022-12-28T14:09:18.303Z,9.86
2022-12-28T14:11:45.203Z,9.82
2022-12-28T14:14:11.794Z,9.64
2022-12-28T14:16:38.485Z,9.34
2022-12-28T14:19:05.174Z,9.18
2022-12-28T14:21:41.602Z,9.06
2022-12-28T14:24:09.409Z,9.06
2022-12-28T14:26:59.616Z,8.76
2022-12-28T14:29:30.675Z,8.64
2022-12-28T14:31:58.387Z,8.50
2022-12-28T14:34:30.460Z,8.39
2022-12-28T14:37:00.187Z,8.29
2022-12-28T14:39:29.285Z,8.28
2022-12-28T14:41:56.019Z,8.12
2022-12-28T14:44:40.927Z,7.98
2022-12-28T14:47:26.332Z,7.78
2022-12-28T14:49:59.409Z,7.65
2022-12-28T14:52:35.801Z,7.62
2022-12-28T14:55:22.179Z,7.49
2022-12-28T14:57:49.438Z,7.41
2022-12-28T15:00:16.438Z,7.45
2022-12-28T15:02:43.471Z,7.39
2022-12-28T15:05:29.109Z,7.44
2022-12-28T15:07:55.805Z,7.43
2022-12-28T15:10:22.375Z,7.43
2022-12-28T15:12:51.454Z,7.50
2022-12-28T15:15:18.044Z,7.59
2022-12-28T15:17:44.857Z,7.63
2022-12-28T15:20:15.475Z,7.65
2022-12-28T15:22:46.360Z,7.61
2022-12-28T15:25:13.022Z,7.53
2022-12-28T15:27:39.639Z,7.44
2022-12-28T15:30:11.919Z,7.36
2022-12-28T15:32:46.212Z,7.37
2022-12-28T15:35:15.192Z,7.37
2022-12-28T15:37:41.819Z,7.35
2022-12-28T15:40:08.873Z,7.35
2022-12-28T15:42:40.310Z,7.27
2022-12-28T15:45:09.211Z,7.22
2022-12-28T15:47:36.181Z,7.16
2022-12-28T15:50:05.205Z,7.10
2022-12-28T15:52:33.952Z,7.11
2022-12-28T15:55:00.620Z,7.13
2022-12-28T15:57:29.591Z,7.14
2022-12-28T15:59:56.381Z,7.13
2022-12-28T16:02:23.612Z,7.10
2022-12-28T16:04:50.371Z,6.97
2022-12-28T16:07:19.198Z,7.00
2022-12-28T16:09:48.389Z,7.00
2022-12-28T16:12:17.925Z,6.99
2022-12-28T16:14:45.495Z,6.91
2022-12-28T16:17:14.754Z,6.92
2022-12-28T16:19:41.399Z,7.01
2022-12-28T16:22:10.426Z,6.98
2022-12-28T16:24:37.122Z,7.04
2022-12-28T16:27:03.993Z,7.06
2022-12-28T16:29:30.744Z,7.05
2022-12-28T16:31:58.518Z,7.04
2022-12-28T16:34:25.408Z,7.00
2022-12-28T16:36:57.265Z,7.05
2022-12-28T16:39:24.021Z,7.12
2022-12-28T16:41:53.050Z,7.08
2022-12-28T16:44:20.739Z,6.95
2022-12-28T16:46:50.182Z,7.01
2022-12-28T16:49:17.019Z,6.86
2022-12-28T16:51:45.373Z,6.72
2022-12-28T16:54:17.991Z,6.70
2022-12-28T16:56:45.225Z,6.63
2022-12-28T16:59:18.919Z,6.60
2022-12-28T17:01:45.726Z,6.51
2022-12-28T17:04:14.997Z,6.53
2022-12-28T17:06:42.131Z,6.52
2022-12-28T17:09:11.971Z,6.49
2022-12-28T17:11:38.784Z,6.47
2022-12-28T17:14:06.408Z,6.49
2022-12-28T17:16:33.395Z,6.52
2022-12-28T17:19:00.635Z,6.47
2022-12-28T17:21:30.601Z,6.35
2022-12-28T17:23:57.535Z,6.25
2022-12-28T17:26:24.464Z,6.20
2022-12-28T17:28:53.774Z,6.08
2022-12-28T17:31:21.437Z,5.93
2022-12-28T17:33:54.490Z,5.82
2022-12-28T17:36:21.579Z,5.77
2022-12-28T17:38:55.708Z,5.77
2022-12-28T17:41:28.249Z,5.76
2022-12-28T17:43:56.073Z,5.84
2022-12-28T17:46:23.345Z,5.87
2022-12-28T17:48:51.381Z,5.84
2022-12-28T17:51:19.589Z,5.81
2022-12-28T17:53:46.234Z,5.80
2022-12-28T17:56:16.042Z,5.68
2022-12-28T17:58:50.056Z,5.64
2022-12-28T18:01:16.809Z,5.56
2022-12-28T18:03:44.326Z,5.53
2022-12-28T18:06:11.104Z,5.54
2022-12-28T18:08:37.791Z,5.55
2022-12-28T18:11:04.655Z,5.52
2022-12-28T18:13:33.419Z,5.46
2022-12-28T18:16:02.605Z,5.43
2022-12-28T18:18:31.678Z,5.38
2022-12-28T18:20:59.612Z,5.40
2022-12-28T18:23:28.173Z,5.44
2022-12-28T18:26:04.923Z,5.43
2022-12-28T18:28:31.893Z,5.45
2022-12-28T18:31:02.122Z,5.31
2022-12-28T18:33:29.757Z,5.30
2022-12-28T18:35:56.411Z,5.26
2022-12-28T18:38:25.541Z,5.23
2022-12-28T18:40:54.980Z,5.25
2022-12-28T18:43:22.341Z,5.17
2022-12-28T18:45:57.764Z,5.23
2022-12-28T18:48:26.878Z,5.21
2022-12-28T18:50:59.766Z,5.23
2022-12-28T18:53:29.513Z,5.24
2022-12-28T18:56:06.788Z,5.17
2022-12-28T18:58:37.932Z,5.10
2022-12-28T19:01:25.992Z,5.15
2022-12-28T19:03:59.245Z,5.23
2022-12-28T19:06:26.531Z,5.27
2022-12-28T19:08:53.134Z,5.34
2022-12-28T19:11:19.729Z,5.31
2022-12-28T19:13:46.516Z,5.30
2022-12-28T19:16:15.735Z,5.35
2022-12-28T19:18:45.065Z,5.40
2022-12-28T19:21:22.446Z,5.42
2022-12-28T19:23:55.111Z,5.38
2022-12-28T19:26:22.137Z,5.43
2022-12-28T19:28:51.320Z,5.35
2022-12-28T19:31:18.168Z,5.38
2022-12-28T19:33:44.793Z,5.42
2022-12-28T19:36:13.720Z,5.39
2022-12-28T19:38:43.009Z,5.33
2022-12-28T19:41:10.918Z,5.32
2022-12-28T19:43:37.677Z,5.20
2022-12-28T19:46:05.529Z,5.04
2022-12-28T19:48:32.152Z,5.01
2022-12-28T19:50:58.838Z,5.01
2022-12-28T19:53:28.312Z,5.05
2022-12-28T19:55:58.622Z,4.96
2022-12-28T19:58:27.756Z,5.03
2022-12-28T20:00:54.433Z,5.07
2022-12-28T20:03:23.513Z,5.07
2022-12-28T20:05:50.314Z,5.06
2022-12-28T20:08:18.033Z,5.04
2022-12-28T20:10:47.247Z,5.04
2022-12-28T20:13:16.683Z,5.02
2022-12-28T20:15:44.711Z,4.95
2022-12-28T20:18:15.883Z,4.88
2022-12-28T20:21:17.345Z,4.80
2022-12-28T20:23:35.671Z,4.76
2022-12-28T20:26:02.751Z,4.70
2022-12-28T20:28:29.672Z,4.66
2022-12-28T20:31:00.022Z,4.65
2022-12-28T20:33:26.740Z,4.65
2022-12-28T20:36:00.695Z,4.65
2022-12-28T20:38:27.674Z,4.66
2022-12-28T20:41:31.913Z,4.63
2022-12-28T20:43:59.218Z,4.65
2022-12-28T20:46:25.918Z,4.65
2022-12-28T20:48:55.046Z,4.63
2022-12-28T20:51:21.763Z,4.59
2022-12-28T20:53:48.441Z,4.61
2022-12-28T20:56:15.134Z,4.58
2022-12-28T20:58:44.085Z,4.58
2022-12-28T21:01:12.079Z,4.56
2022-12-28T21:03:38.999Z,4.55
2022-12-28T21:06:05.805Z,4.57
2022-12-28T21:08:36.455Z,4.56
2022-12-28T21:11:09.435Z,4.55
2022-12-28T21:13:40.676Z,4.58
2022-12-28T21:16:09.313Z,4.60
2022-12-28T21:18:38.566Z,4.60
2022-12-28T21:21:13.011Z,4.61
2022-12-28T21:23:40.084Z,4.67
2022-12-28T21:26:07.473Z,4.67
2022-12-28T21:28:38.760Z,4.68
2022-12-28T21:31:06.461Z,4.66
2022-12-28T21:33:35.888Z,4.55
2022-12-28T21:36:20.690Z,4.50
2022-12-28T21:38:47.998Z,4.39
2022-12-28T21:41:41.677Z,4.39
2022-12-28T21:44:09.887Z,4.32
2022-12-28T21:46:36.600Z,4.22
2022-12-28T21:49:06.341Z,4.19
2022-12-28T21:51:41.601Z,4.12
2022-12-28T21:54:18.936Z,4.06
2022-12-28T21:56:51.457Z,4.04
2022-12-28T21:59:21.165Z,4.04
2022-12-28T22:02:06.433Z,3.99
2022-12-28T22:05:01.848Z,3.93
2022-12-28T22:07:29.574Z,3.89
2022-12-28T22:10:19.856Z,3.82
2022-12-28T22:13:01.228Z,3.72
2022-12-28T22:15:57.216Z,3.73
2022-12-28T22:19:00.303Z,3.76
2022-12-28T22:21:18.960Z,3.80
2022-12-28T22:23:50.216Z,3.81
2022-12-28T22:26:16.980Z,3.82
2022-12-28T22:29:08.557Z,3.81
2022-12-28T22:31:37.293Z,3.82
2022-12-28T22:34:07.327Z,3.77
2022-12-28T22:36:40.874Z,3.79
2022-12-28T22:42:47.895Z,3.75
2022-12-28T22:45:15.613Z,3.73
2022-12-28T22:47:42.651Z,3.76
2022-12-28T22:50:10.110Z,3.77
2022-12-28T22:52:38.923Z,3.76
2022-12-28T22:55:08.395Z,3.74
2022-12-28T22:57:35.177Z,3.70
2022-12-28T23:00:01.769Z,3.74
2022-12-28T23:02:31.737Z,3.77
2022-12-28T23:04:58.640Z,3.72
2022-12-28T23:07:27.630Z,3.66
2022-12-28T23:09:54.281Z,3.68
2022-12-28T23:12:20.999Z,3.74
2022-12-28T23:15:06.851Z,3.82
2022-12-28T23:17:35.902Z,3.86
2022-12-28T23:20:21.173Z,3.87
2022-12-28T23:23:10.738Z,3.90
2022-12-28T23:25:57.399Z,3.89
2022-12-28T23:28:26.356Z,3.89
2022-12-28T23:30:56.559Z,3.90
2022-12-28T23:33:23.421Z,3.91
2022-12-28T23:35:50.198Z,3.96
2022-12-28T23:38:19.177Z,4.03
2022-12-28T23:41:05.760Z,4.05
2022-12-28T23:43:36.950Z,4.10
2022-12-28T23:46:04.694Z,4.12
2022-12-28T23:48:31.480Z,4.16
2022-12-28T23:51:08.568Z,4.18
2022-12-28T23:53:35.371Z,4.19
2022-12-28T23:56:06.812Z,4.21
2022-12-28T23:58:33.494Z,4.20
